sensor_id;sensor_type;location;lat;lon;timestamp;P1;durP1;ratioP1;P2;durP2;ratioP2
54841;SDS011;40741;45.002;7.536;2023-02-03T00:01:47;12.27;;;7.57;;
54841;SDS011;40741;45.002;7.536;2023-02-03T00:04:13;12.57;;;5.93;;
54841;SDS011;40741;45.002;7.536;2023-02-03T00:06:40;8.75;;;6.28;;
54841;SDS011;40741;45.002;7.536;2023-02-03T00:09:06;14.18;;;7.10;;
54841;SDS011;40741;45.002;7.536;2023-02-03T00:11:32;10.05;;;5.43;;
54841;SDS011;40741;45.002;7.536;2023-02-03T00:13:58;11.93;;;6.75;;
54841;SDS011;40741;45.002;7.536;2023-02-03T00:16:24;11.68;;;7.43;;
54841;SDS011;40741;45.002;7.536;2023-02-03T00:18:50;21.58;;;7.68;;
54841;SDS011;40741;45.002;7.536;2023-02-03T00:21:16;17.17;;;6.57;;
54841;SDS011;40741;45.002;7.536;2023-02-03T00:23:42;10.00;;;4.95;;
54841;SDS011;40741;45.002;7.536;2023-02-03T00:26:09;17.50;;;8.05;;
54841;SDS011;40741;45.002;7.536;2023-02-03T00:28:36;19.17;;;5.95;;
54841;SDS011;40741;45.002;7.536;2023-02-03T00:31:02;13.70;;;7.53;;
54841;SDS011;40741;45.002;7.536;2023-02-03T00:33:28;16.63;;;6.78;;
54841;SDS011;40741;45.002;7.536;2023-02-03T00:35:54;13.48;;;6.15;;
54841;SDS011;40741;45.002;7.536;2023-02-03T00:38:20;15.10;;;7.65;;
54841;SDS011;40741;45.002;7.536;2023-02-03T00:40:52;10.88;;;5.65;;
54841;SDS011;40741;45.002;7.536;2023-02-03T00:43:19;18.25;;;7.57;;
54841;SDS011;40741;45.002;7.536;2023-02-03T00:45:45;16.38;;;7.20;;
54841;SDS011;40741;45.002;7.536;2023-02-03T00:48:11;9.00;;;5.45;;
54841;SDS011;40741;45.002;7.536;2023-02-03T00:50:38;16.02;;;5.82;;
54841;SDS011;40741;45.002;7.536;2023-02-03T00:53:04;15.27;;;6.68;;
54841;SDS011;40741;45.002;7.536;2023-02-03T00:55:30;5.95;;;5.28;;
54841;SDS011;40741;45.002;7.536;2023-02-03T00:57:56;13.00;;;5.68;;
54841;SDS011;40741;45.002;7.536;2023-02-03T01:00:21;12.93;;;6.97;;
54841;SDS011;40741;45.002;7.536;2023-02-03T01:02:47;7.38;;;4.07;;
54841;SDS011;40741;45.002;7.536;2023-02-03T01:05:16;16.15;;;7.85;;
54841;SDS011;40741;45.002;7.536;2023-02-03T01:07:44;13.23;;;5.30;;
54841;SDS011;40741;45.002;7.536;2023-02-03T01:10:10;18.85;;;5.97;;
54841;SDS011;40741;45.002;7.536;2023-02-03T01:12:36;7.25;;;5.38;;
54841;SDS011;40741;45.002;7.536;2023-02-03T01:15:03;7.70;;;5.30;;
54841;SDS011;40741;45.002;7.536;2023-02-03T01:17:29;13.30;;;6.20;;
54841;SDS011;40741;45.002;7.536;2023-02-03T01:19:56;8.18;;;6.22;;
54841;SDS011;40741;45.002;7.536;2023-02-03T01:22:22;13.75;;;6.30;;
54841;SDS011;40741;45.002;7.536;2023-02-03T01:24:48;8.23;;;4.90;;
54841;SDS011;40741;45.002;7.536;2023-02-03T01:27:14;10.10;;;5.32;;
54841;SDS011;40741;45.002;7.536;2023-02-03T01:29:40;12.05;;;6.35;;
54841;SDS011;40741;45.002;7.536;2023-02-03T01:32:06;13.27;;;6.50;;
54841;SDS011;40741;45.002;7.536;2023-02-03T01:34:32;19.50;;;8.02;;
54841;SDS011;40741;45.002;7.536;2023-02-03T01:36:58;9.57;;;6.60;;
54841;SDS011;40741;45.002;7.536;2023-02-03T01:39:23;8.45;;;5.43;;
54841;SDS011;40741;45.002;7.536;2023-02-03T01:41:50;18.80;;;6.30;;
54841;SDS011;40741;45.002;7.536;2023-02-03T01:47:01;17.42;;;6.68;;
54841;SDS011;40741;45.002;7.536;2023-02-03T01:49:31;10.45;;;6.90;;
54841;SDS011;40741;45.002;7.536;2023-02-03T01:52:00;15.02;;;5.82;;
54841;SDS011;40741;45.002;7.536;2023-02-03T01:54:28;23.58;;;10.32;;
54841;SDS011;40741;45.002;7.536;2023-02-03T01:57:00;14.73;;;6.38;;
54841;SDS011;40741;45.002;7.536;2023-02-03T02:01:53;8.80;;;5.55;;
54841;SDS011;40741;45.002;7.536;2023-02-03T02:04:20;11.40;;;6.07;;
54841;SDS011;40741;45.002;7.536;2023-02-03T02:06:46;10.10;;;6.28;;
54841;SDS011;40741;45.002;7.536;2023-02-03T02:09:13;7.63;;;5.00;;
54841;SDS011;40741;45.002;7.536;2023-02-03T02:11:39;8.25;;;5.75;;
54841;SDS011;40741;45.002;7.536;2023-02-03T02:14:05;10.00;;;6.03;;
54841;SDS011;40741;45.002;7.536;2023-02-03T02:16:38;9.55;;;5.75;;
54841;SDS011;40741;45.002;7.536;2023-02-03T02:22:02;8.63;;;4.50;;
54841;SDS011;40741;45.002;7.536;2023-02-03T02:27:11;10.88;;;6.45;;
54841;SDS011;40741;45.002;7.536;2023-02-03T02:29:55;13.07;;;5.43;;
54841;SDS011;40741;45.002;7.536;2023-02-03T02:37:28;16.60;;;6.95;;
54841;SDS011;40741;45.002;7.536;2023-02-03T02:42:36;5.00;;;3.60;;
54841;SDS011;40741;45.002;7.536;2023-02-03T02:45:06;9.55;;;4.15;;
54841;SDS011;40741;45.002;7.536;2023-02-03T02:47:34;5.18;;;3.95;;
54841;SDS011;40741;45.002;7.536;2023-02-03T02:52:28;5.40;;;3.78;;
54841;SDS011;40741;45.002;7.536;2023-02-03T02:54:55;13.98;;;5.78;;
54841;SDS011;40741;45.002;7.536;2023-02-03T02:57:22;7.43;;;5.18;;
54841;SDS011;40741;45.002;7.536;2023-02-03T02:59:50;8.73;;;3.78;;
54841;SDS011;40741;45.002;7.536;2023-02-03T03:02:15;8.95;;;5.53;;
54841;SDS011;40741;45.002;7.536;2023-02-03T03:04:42;7.72;;;3.33;;
54841;SDS011;40741;45.002;7.536;2023-02-03T03:07:12;9.77;;;4.18;;
54841;SDS011;40741;45.002;7.536;2023-02-03T03:09:48;9.48;;;5.18;;
54841;SDS011;40741;45.002;7.536;2023-02-03T03:12:18;8.88;;;5.00;;
54841;SDS011;40741;45.002;7.536;2023-02-03T03:15:03;10.82;;;5.85;;
54841;SDS011;40741;45.002;7.536;2023-02-03T03:17:30;7.45;;;4.60;;
54841;SDS011;40741;45.002;7.536;2023-02-03T03:20:03;14.63;;;4.20;;
54841;SDS011;40741;45.002;7.536;2023-02-03T03:22:33;13.80;;;5.57;;
54841;SDS011;40741;45.002;7.536;2023-02-03T03:25:11;8.63;;;5.15;;
54841;SDS011;40741;45.002;7.536;2023-02-03T03:27:47;15.70;;;5.30;;
54841;SDS011;40741;45.002;7.536;2023-02-03T03:30:33;8.35;;;4.03;;
54841;SDS011;40741;45.002;7.536;2023-02-03T03:33:00;5.60;;;3.47;;
54841;SDS011;40741;45.002;7.536;2023-02-03T03:36:00;9.73;;;3.13;;
54841;SDS011;40741;45.002;7.536;2023-02-03T03:38:20;13.63;;;3.33;;
54841;SDS011;40741;45.002;7.536;2023-02-03T03:40:50;12.07;;;4.07;;
54841;SDS011;40741;45.002;7.536;2023-02-03T03:43:23;11.65;;;5.50;;
54841;SDS011;40741;45.002;7.536;2023-02-03T03:45:54;9.05;;;5.32;;
54841;SDS011;40741;45.002;7.536;2023-02-03T03:50:53;10.05;;;5.10;;
54841;SDS011;40741;45.002;7.536;2023-02-03T03:53:23;11.43;;;5.38;;
54841;SDS011;40741;45.002;7.536;2023-02-03T03:55:52;9.13;;;4.53;;
54841;SDS011;40741;45.002;7.536;2023-02-03T03:58:25;13.48;;;4.60;;
54841;SDS011;40741;45.002;7.536;2023-02-03T04:00:56;6.22;;;4.28;;
54841;SDS011;40741;45.002;7.536;2023-02-03T04:03:27;8.60;;;4.13;;
54841;SDS011;40741;45.002;7.536;2023-02-03T04:05:59;11.48;;;3.67;;
54841;SDS011;40741;45.002;7.536;2023-02-03T04:08:25;10.40;;;3.50;;
54841;SDS011;40741;45.002;7.536;2023-02-03T04:10:51;7.00;;;3.75;;
54841;SDS011;40741;45.002;7.536;2023-02-03T04:13:17;6.90;;;4.07;;
54841;SDS011;40741;45.002;7.536;2023-02-03T04:15:44;5.53;;;4.00;;
54841;SDS011;40741;45.002;7.536;2023-02-03T04:18:14;8.00;;;3.85;;
54841;SDS011;40741;45.002;7.536;2023-02-03T04:20:40;8.93;;;5.32;;
54841;SDS011;40741;45.002;7.536;2023-02-03T04:23:07;15.80;;;4.28;;
54841;SDS011;40741;45.002;7.536;2023-02-03T04:25:33;10.38;;;3.75;;
54841;SDS011;40741;45.002;7.536;2023-02-03T04:27:59;4.35;;;3.80;;
54841;SDS011;40741;45.002;7.536;2023-02-03T04:30:25;6.57;;;4.05;;
54841;SDS011;40741;45.002;7.536;2023-02-03T04:32:51;5.80;;;4.78;;
54841;SDS011;40741;45.002;7.536;2023-02-03T04:35:18;5.63;;;4.32;;
54841;SDS011;40741;45.002;7.536;2023-02-03T04:37:44;8.23;;;3.78;;
54841;SDS011;40741;45.002;7.536;2023-02-03T04:40:11;10.82;;;4.07;;
54841;SDS011;40741;45.002;7.536;2023-02-03T04:42:39;6.45;;;3.08;;
54841;SDS011;40741;45.002;7.536;2023-02-03T04:45:06;12.43;;;6.10;;
54841;SDS011;40741;45.002;7.536;2023-02-03T04:47:33;7.47;;;3.72;;
54841;SDS011;40741;45.002;7.536;2023-02-03T04:49:59;11.77;;;5.65;;
54841;SDS011;40741;45.002;7.536;2023-02-03T04:52:26;12.15;;;4.03;;
54841;SDS011;40741;45.002;7.536;2023-02-03T04:54:52;9.70;;;5.60;;
54841;SDS011;40741;45.002;7.536;2023-02-03T04:57:18;8.60;;;4.25;;
54841;SDS011;40741;45.002;7.536;2023-02-03T04:59:44;11.07;;;6.80;;
54841;SDS011;40741;45.002;7.536;2023-02-03T05:02:10;13.40;;;4.55;;
54841;SDS011;40741;45.002;7.536;2023-02-03T05:04:35;7.28;;;5.15;;
54841;SDS011;40741;45.002;7.536;2023-02-03T05:07:01;6.90;;;4.47;;
54841;SDS011;40741;45.002;7.536;2023-02-03T05:09:28;11.18;;;4.75;;
54841;SDS011;40741;45.002;7.536;2023-02-03T05:11:53;10.63;;;5.13;;
54841;SDS011;40741;45.002;7.536;2023-02-03T05:14:19;13.20;;;4.97;;
54841;SDS011;40741;45.002;7.536;2023-02-03T05:16:45;6.50;;;2.70;;
54841;SDS011;40741;45.002;7.536;2023-02-03T05:19:12;11.45;;;5.97;;
54841;SDS011;40741;45.002;7.536;2023-02-03T05:21:38;10.10;;;5.85;;
54841;SDS011;40741;45.002;7.536;2023-02-03T05:24:04;6.90;;;3.80;;
54841;SDS011;40741;45.002;7.536;2023-02-03T05:26:32;12.18;;;6.63;;
54841;SDS011;40741;45.002;7.536;2023-02-03T05:28:58;11.40;;;4.75;;
54841;SDS011;40741;45.002;7.536;2023-02-03T05:31:24;9.13;;;4.75;;
54841;SDS011;40741;45.002;7.536;2023-02-03T05:33:50;11.27;;;4.68;;
54841;SDS011;40741;45.002;7.536;2023-02-03T05:36:16;14.07;;;4.80;;
54841;SDS011;40741;45.002;7.536;2023-02-03T05:38:42;5.63;;;4.22;;
54841;SDS011;40741;45.002;7.536;2023-02-03T05:41:12;4.90;;;4.45;;
54841;SDS011;40741;45.002;7.536;2023-02-03T05:43:56;11.23;;;4.07;;
54841;SDS011;40741;45.002;7.536;2023-02-03T05:46:22;6.88;;;5.53;;
54841;SDS011;40741;45.002;7.536;2023-02-03T05:48:47;8.25;;;4.00;;
54841;SDS011;40741;45.002;7.536;2023-02-03T05:51:13;9.43;;;4.93;;
54841;SDS011;40741;45.002;7.536;2023-02-03T05:53:39;11.32;;;5.28;;
54841;SDS011;40741;45.002;7.536;2023-02-03T05:56:05;8.63;;;4.45;;
54841;SDS011;40741;45.002;7.536;2023-02-03T05:58:31;5.72;;;5.00;;
54841;SDS011;40741;45.002;7.536;2023-02-03T06:00:56;5.28;;;3.17;;
54841;SDS011;40741;45.002;7.536;2023-02-03T06:03:22;3.65;;;3.35;;
54841;SDS011;40741;45.002;7.536;2023-02-03T06:05:48;8.70;;;3.40;;
54841;SDS011;40741;45.002;7.536;2023-02-03T06:08:14;7.85;;;3.75;;
54841;SDS011;40741;45.002;7.536;2023-02-03T06:10:39;5.80;;;3.75;;
54841;SDS011;40741;45.002;7.536;2023-02-03T06:13:09;11.48;;;6.60;;
54841;SDS011;40741;45.002;7.536;2023-02-03T06:15:35;5.50;;;4.25;;
54841;SDS011;40741;45.002;7.536;2023-02-03T06:18:02;9.70;;;4.80;;
54841;SDS011;40741;45.002;7.536;2023-02-03T06:20:28;5.88;;;3.72;;
54841;SDS011;40741;45.002;7.536;2023-02-03T06:22:54;7.55;;;4.20;;
54841;SDS011;40741;45.002;7.536;2023-02-03T06:25:19;6.47;;;3.42;;
54841;SDS011;40741;45.002;7.536;2023-02-03T06:27:45;5.72;;;4.50;;
54841;SDS011;40741;45.002;7.536;2023-02-03T06:30:12;6.28;;;3.97;;
54841;SDS011;40741;45.002;7.536;2023-02-03T06:32:38;4.57;;;2.75;;
54841;SDS011;40741;45.002;7.536;2023-02-03T06:35:04;9.82;;;5.32;;
54841;SDS011;40741;45.002;7.536;2023-02-03T06:37:30;6.97;;;4.60;;
54841;SDS011;40741;45.002;7.536;2023-02-03T06:39:56;11.13;;;4.22;;
54841;SDS011;40741;45.002;7.536;2023-02-03T06:42:22;7.07;;;4.55;;
54841;SDS011;40741;45.002;7.536;2023-02-03T06:44:47;11.68;;;5.13;;
54841;SDS011;40741;45.002;7.536;2023-02-03T06:47:13;13.02;;;3.97;;
54841;SDS011;40741;45.002;7.536;2023-02-03T06:49:39;6.95;;;4.03;;
54841;SDS011;40741;45.002;7.536;2023-02-03T06:52:04;16.17;;;5.55;;
54841;SDS011;40741;45.002;7.536;2023-02-03T06:54:30;4.43;;;2.95;;
54841;SDS011;40741;45.002;7.536;2023-02-03T06:56:56;11.43;;;4.60;;
54841;SDS011;40741;45.002;7.536;2023-02-03T06:59:22;9.35;;;5.45;;
54841;SDS011;40741;45.002;7.536;2023-02-03T07:01:47;6.68;;;4.63;;
54841;SDS011;40741;45.002;7.536;2023-02-03T07:04:13;16.27;;;6.32;;
54841;SDS011;40741;45.002;7.536;2023-02-03T07:06:39;11.07;;;4.22;;
54841;SDS011;40741;45.002;7.536;2023-02-03T07:09:04;21.10;;;3.83;;
54841;SDS011;40741;45.002;7.536;2023-02-03T07:11:30;16.73;;;5.80;;
54841;SDS011;40741;45.002;7.536;2023-02-03T07:13:57;22.95;;;4.95;;
54841;SDS011;40741;45.002;7.536;2023-02-03T07:16:23;9.07;;;5.32;;
54841;SDS011;40741;45.002;7.536;2023-02-03T07:18:51;11.70;;;6.53;;
54841;SDS011;40741;45.002;7.536;2023-02-03T07:21:17;10.30;;;4.03;;
54841;SDS011;40741;45.002;7.536;2023-02-03T07:23:45;10.93;;;6.05;;
54841;SDS011;40741;45.002;7.536;2023-02-03T07:26:12;8.90;;;5.72;;
54841;SDS011;40741;45.002;7.536;2023-02-03T07:28:38;10.30;;;5.05;;
54841;SDS011;40741;45.002;7.536;2023-02-03T07:31:04;10.20;;;5.03;;
54841;SDS011;40741;45.002;7.536;2023-02-03T07:33:32;12.00;;;6.38;;
54841;SDS011;40741;45.002;7.536;2023-02-03T07:35:58;12.73;;;5.50;;
54841;SDS011;40741;45.002;7.536;2023-02-03T07:38:25;13.50;;;6.13;;
54841;SDS011;40741;45.002;7.536;2023-02-03T07:40:51;12.35;;;5.55;;
54841;SDS011;40741;45.002;7.536;2023-02-03T07:43:17;16.05;;;5.00;;
54841;SDS011;40741;45.002;7.536;2023-02-03T07:45:44;5.80;;;3.70;;
54841;SDS011;40741;45.002;7.536;2023-02-03T07:48:10;5.95;;;4.55;;
54841;SDS011;40741;45.002;7.536;2023-02-03T07:50:37;8.15;;;3.53;;
54841;SDS011;40741;45.002;7.536;2023-02-03T07:53:03;8.85;;;4.47;;
54841;SDS011;40741;45.002;7.536;2023-02-03T07:55:29;3.67;;;3.35;;
54841;SDS011;40741;45.002;7.536;2023-02-03T07:57:56;5.13;;;4.03;;
54841;SDS011;40741;45.002;7.536;2023-02-03T08:00:22;8.27;;;4.10;;
54841;SDS011;40741;45.002;7.536;2023-02-03T08:02:49;6.50;;;3.20;;
54841;SDS011;40741;45.002;7.536;2023-02-03T08:05:15;10.93;;;4.18;;
54841;SDS011;40741;45.002;7.536;2023-02-03T08:07:42;8.48;;;5.13;;
54841;SDS011;40741;45.002;7.536;2023-02-03T08:10:08;7.20;;;4.80;;
54841;SDS011;40741;45.002;7.536;2023-02-03T08:12:35;11.98;;;5.38;;
54841;SDS011;40741;45.002;7.536;2023-02-03T08:15:01;8.45;;;5.35;;
54841;SDS011;40741;45.002;7.536;2023-02-03T08:17:27;8.95;;;6.07;;
54841;SDS011;40741;45.002;7.536;2023-02-03T08:19:53;7.57;;;4.40;;
54841;SDS011;40741;45.002;7.536;2023-02-03T08:22:19;18.30;;;6.15;;
54841;SDS011;40741;45.002;7.536;2023-02-03T08:24:45;10.25;;;4.20;;
54841;SDS011;40741;45.002;7.536;2023-02-03T08:27:12;10.48;;;5.15;;
54841;SDS011;40741;45.002;7.536;2023-02-03T08:29:38;9.02;;;4.82;;
54841;SDS011;40741;45.002;7.536;2023-02-03T08:32:07;11.15;;;4.90;;
54841;SDS011;40741;45.002;7.536;2023-02-03T08:34:34;7.45;;;6.68;;
54841;SDS011;40741;45.002;7.536;2023-02-03T08:37:00;9.10;;;5.38;;
54841;SDS011;40741;45.002;7.536;2023-02-03T08:39:26;8.18;;;5.38;;
54841;SDS011;40741;45.002;7.536;2023-02-03T08:41:52;9.65;;;6.43;;
54841;SDS011;40741;45.002;7.536;2023-02-03T08:44:18;12.45;;;7.07;;
54841;SDS011;40741;45.002;7.536;2023-02-03T08:46:47;16.77;;;6.35;;
54841;SDS011;40741;45.002;7.536;2023-02-03T08:49:14;12.05;;;6.85;;
54841;SDS011;40741;45.002;7.536;2023-02-03T08:51:40;11.48;;;7.25;;
54841;SDS011;40741;45.002;7.536;2023-02-03T08:54:06;10.68;;;6.93;;
54841;SDS011;40741;45.002;7.536;2023-02-03T08:56:32;13.55;;;7.07;;
54841;SDS011;40741;45.002;7.536;2023-02-03T08:58:58;10.05;;;6.63;;
54841;SDS011;40741;45.002;7.536;2023-02-03T09:01:25;22.05;;;8.82;;
54841;SDS011;40741;45.002;7.536;2023-02-03T09:03:51;9.20;;;6.53;;
54841;SDS011;40741;45.002;7.536;2023-02-03T09:06:17;19.90;;;7.55;;
54841;SDS011;40741;45.002;7.536;2023-02-03T09:08:43;20.73;;;7.90;;
54841;SDS011;40741;45.002;7.536;2023-02-03T09:11:10;15.93;;;10.52;;
54841;SDS011;40741;45.002;7.536;2023-02-03T09:13:37;17.98;;;7.95;;
54841;SDS011;40741;45.002;7.536;2023-02-03T09:16:04;27.98;;;8.52;;
54841;SDS011;40741;45.002;7.536;2023-02-03T09:18:32;14.20;;;6.97;;
54841;SDS011;40741;45.002;7.536;2023-02-03T09:21:04;15.98;;;8.30;;
54841;SDS011;40741;45.002;7.536;2023-02-03T09:23:31;11.55;;;6.10;;
54841;SDS011;40741;45.002;7.536;2023-02-03T09:26:01;13.18;;;7.05;;
54841;SDS011;40741;45.002;7.536;2023-02-03T09:28:27;14.30;;;8.15;;
54841;SDS011;40741;45.002;7.536;2023-02-03T09:30:53;8.07;;;6.05;;
54841;SDS011;40741;45.002;7.536;2023-02-03T09:33:19;12.43;;;5.95;;
54841;SDS011;40741;45.002;7.536;2023-02-03T09:35:51;11.45;;;6.25;;
54841;SDS011;40741;45.002;7.536;2023-02-03T09:38:18;10.90;;;6.45;;
54841;SDS011;40741;45.002;7.536;2023-02-03T09:40:44;17.95;;;7.00;;
54841;SDS011;40741;45.002;7.536;2023-02-03T09:45:46;8.88;;;7.13;;
54841;SDS011;40741;45.002;7.536;2023-02-03T09:48:17;12.00;;;5.35;;
54841;SDS011;40741;45.002;7.536;2023-02-03T09:50:47;23.23;;;6.22;;
54841;SDS011;40741;45.002;7.536;2023-02-03T09:55:44;10.75;;;5.75;;
54841;SDS011;40741;45.002;7.536;2023-02-03T09:58:17;12.60;;;6.28;;
54841;SDS011;40741;45.002;7.536;2023-02-03T10:00:50;18.80;;;6.53;;
54841;SDS011;40741;45.002;7.536;2023-02-03T10:09:22;12.80;;;5.75;;
54841;SDS011;40741;45.002;7.536;2023-02-03T10:17:14;12.43;;;6.15;;
54841;SDS011;40741;45.002;7.536;2023-02-03T10:22:11;10.48;;;6.28;;
54841;SDS011;40741;45.002;7.536;2023-02-03T10:24:55;8.85;;;5.93;;
54841;SDS011;40741;45.002;7.536;2023-02-03T10:27:23;11.88;;;5.53;;
54841;SDS011;40741;45.002;7.536;2023-02-03T10:32:34;12.70;;;6.45;;
54841;SDS011;40741;45.002;7.536;2023-02-03T10:35:01;15.55;;;5.47;;
54841;SDS011;40741;45.002;7.536;2023-02-03T10:37:31;12.48;;;6.32;;
54841;SDS011;40741;45.002;7.536;2023-02-03T10:39:58;10.90;;;6.15;;
54841;SDS011;40741;45.002;7.536;2023-02-03T10:42:26;6.28;;;4.70;;
54841;SDS011;40741;45.002;7.536;2023-02-03T10:45:15;12.30;;;5.90;;
54841;SDS011;40741;45.002;7.536;2023-02-03T10:47:49;8.63;;;4.85;;
54841;SDS011;40741;45.002;7.536;2023-02-03T10:50:18;8.02;;;4.78;;
54841;SDS011;40741;45.002;7.536;2023-02-03T10:52:45;7.18;;;5.15;;
54841;SDS011;40741;45.002;7.536;2023-02-03T10:57:47;11.38;;;5.80;;
54841;SDS011;40741;45.002;7.536;2023-02-03T11:02:43;14.52;;;4.90;;
54841;SDS011;40741;45.002;7.536;2023-02-03T11:05:20;12.15;;;6.95;;
54841;SDS011;40741;45.002;7.536;2023-02-03T11:07:48;8.15;;;3.63;;
54841;SDS011;40741;45.002;7.536;2023-02-03T11:18:32;7.30;;;4.32;;
54841;SDS011;40741;45.002;7.536;2023-02-03T11:22:03;8.63;;;4.17;;
54841;SDS011;40741;45.002;7.536;2023-02-03T11:24:05;6.95;;;4.57;;
54841;SDS011;40741;45.002;7.536;2023-02-03T11:26:35;12.52;;;5.50;;
54841;SDS011;40741;45.002;7.536;2023-02-03T11:29:02;14.07;;;5.05;;
54841;SDS011;40741;45.002;7.536;2023-02-03T11:31:31;11.55;;;3.83;;
54841;SDS011;40741;45.002;7.536;2023-02-03T11:34:03;9.05;;;2.70;;
54841;SDS011;40741;45.002;7.536;2023-02-03T11:36:30;6.10;;;3.80;;
54841;SDS011;40741;45.002;7.536;2023-02-03T11:41:36;5.50;;;2.65;;
54841;SDS011;40741;45.002;7.536;2023-02-03T11:44:25;9.25;;;4.10;;
54841;SDS011;40741;45.002;7.536;2023-02-03T11:46:54;9.55;;;3.88;;
54841;SDS011;40741;45.002;7.536;2023-02-03T12:02:39;11.85;;;4.10;;
54841;SDS011;40741;45.002;7.536;2023-02-03T12:05:31;7.13;;;5.30;;
54841;SDS011;40741;45.002;7.536;2023-02-03T12:21:02;11.25;;;5.40;;
54841;SDS011;40741;45.002;7.536;2023-02-03T12:26:09;5.43;;;2.65;;
54841;SDS011;40741;45.002;7.536;2023-02-03T12:31:13;4.85;;;4.05;;
54841;SDS011;40741;45.002;7.536;2023-02-03T12:33:45;8.05;;;4.38;;
54841;SDS011;40741;45.002;7.536;2023-02-03T12:38:43;5.63;;;3.25;;
54841;SDS011;40741;45.002;7.536;2023-02-03T12:41:12;6.70;;;3.27;;
54841;SDS011;40741;45.002;7.536;2023-02-03T12:43:40;5.57;;;2.78;;
54841;SDS011;40741;45.002;7.536;2023-02-03T12:46:18;7.78;;;3.35;;
54841;SDS011;40741;45.002;7.536;2023-02-03T12:48:59;8.73;;;3.83;;
54841;SDS011;40741;45.002;7.536;2023-02-03T12:51:36;6.47;;;3.65;;
54841;SDS011;40741;45.002;7.536;2023-02-03T12:54:06;6.13;;;3.65;;
54841;SDS011;40741;45.002;7.536;2023-02-03T12:56:36;6.87;;;4.10;;
54841;SDS011;40741;45.002;7.536;2023-02-03T12:59:14;9.23;;;3.50;;
54841;SDS011;40741;45.002;7.536;2023-02-03T13:01:48;5.78;;;1.83;;
54841;SDS011;40741;45.002;7.536;2023-02-03T13:04:27;15.68;;;3.72;;
54841;SDS011;40741;45.002;7.536;2023-02-03T13:12:06;7.82;;;2.15;;
54841;SDS011;40741;45.002;7.536;2023-02-03T13:14:35;8.52;;;4.00;;
54841;SDS011;40741;45.002;7.536;2023-02-03T13:17:24;12.80;;;5.03;;
54841;SDS011;40741;45.002;7.536;2023-02-03T13:19:49;11.60;;;5.13;;
54841;SDS011;40741;45.002;7.536;2023-02-03T13:22:16;5.93;;;2.97;;
54841;SDS011;40741;45.002;7.536;2023-02-03T13:24:45;7.22;;;4.03;;
54841;SDS011;40741;45.002;7.536;2023-02-03T13:32:42;7.87;;;2.40;;
54841;SDS011;40741;45.002;7.536;2023-02-03T13:35:34;5.28;;;1.42;;
54841;SDS011;40741;45.002;7.536;2023-02-03T13:40:35;5.75;;;2.92;;
54841;SDS011;40741;45.002;7.536;2023-02-03T13:43:03;8.13;;;3.90;;
54841;SDS011;40741;45.002;7.536;2023-02-03T13:45:31;4.65;;;1.75;;
54841;SDS011;40741;45.002;7.536;2023-02-03T13:51:07;2.70;;;1.75;;
54841;SDS011;40741;45.002;7.536;2023-02-03T13:53:37;5.53;;;3.03;;
54841;SDS011;40741;45.002;7.536;2023-02-03T13:56:04;6.47;;;2.63;;
54841;SDS011;40741;45.002;7.536;2023-02-03T13:58:35;6.55;;;4.85;;
54841;SDS011;40741;45.002;7.536;2023-02-03T14:03:47;6.65;;;3.42;;
54841;SDS011;40741;45.002;7.536;2023-02-03T14:08:58;4.75;;;2.72;;
54841;SDS011;40741;45.002;7.536;2023-02-03T14:16:29;9.23;;;3.33;;
54841;SDS011;40741;45.002;7.536;2023-02-03T14:18:59;7.75;;;3.22;;
54841;SDS011;40741;45.002;7.536;2023-02-03T14:21:25;8.70;;;2.65;;
54841;SDS011;40741;45.002;7.536;2023-02-03T14:24:01;7.75;;;2.95;;
54841;SDS011;40741;45.002;7.536;2023-02-03T14:26:34;8.00;;;3.00;;
54841;SDS011;40741;45.002;7.536;2023-02-03T14:29:02;5.90;;;3.13;;
54841;SDS011;40741;45.002;7.536;2023-02-03T14:31:29;3.70;;;2.05;;
54841;SDS011;40741;45.002;7.536;2023-02-03T14:36:41;3.42;;;2.47;;
54841;SDS011;40741;45.002;7.536;2023-02-03T14:55:40;4.25;;;1.90;;
54841;SDS011;40741;45.002;7.536;2023-02-03T14:58:20;3.72;;;2.00;;
54841;SDS011;40741;45.002;7.536;2023-02-03T15:00:48;3.45;;;2.13;;
54841;SDS011;40741;45.002;7.536;2023-02-03T15:03:17;1.85;;;1.38;;
54841;SDS011;40741;45.002;7.536;2023-02-03T15:05:53;3.40;;;0.85;;
54841;SDS011;40741;45.002;7.536;2023-02-03T15:08:30;2.03;;;1.80;;
54841;SDS011;40741;45.002;7.536;2023-02-03T15:10:57;4.60;;;2.20;;
54841;SDS011;40741;45.002;7.536;2023-02-03T15:13:24;2.17;;;1.23;;
54841;SDS011;40741;45.002;7.536;2023-02-03T15:15:51;4.65;;;1.48;;
54841;SDS011;40741;45.002;7.536;2023-02-03T15:18:25;6.95;;;3.03;;
54841;SDS011;40741;45.002;7.536;2023-02-03T15:20:52;4.22;;;2.53;;
54841;SDS011;40741;45.002;7.536;2023-02-03T15:23:20;5.95;;;2.03;;
54841;SDS011;40741;45.002;7.536;2023-02-03T15:25:51;3.00;;;1.70;;
54841;SDS011;40741;45.002;7.536;2023-02-03T15:28:19;5.32;;;2.63;;
54841;SDS011;40741;45.002;7.536;2023-02-03T15:30:45;2.63;;;1.92;;
54841;SDS011;40741;45.002;7.536;2023-02-03T15:33:13;6.70;;;2.25;;
54841;SDS011;40741;45.002;7.536;2023-02-03T15:35:40;5.65;;;2.88;;
54841;SDS011;40741;45.002;7.536;2023-02-03T15:38:10;2.60;;;1.88;;
54841;SDS011;40741;45.002;7.536;2023-02-03T15:40:43;3.25;;;1.65;;
54841;SDS011;40741;45.002;7.536;2023-02-03T15:43:13;5.95;;;2.05;;
54841;SDS011;40741;45.002;7.536;2023-02-03T15:48:34;2.67;;;1.75;;
54841;SDS011;40741;45.002;7.536;2023-02-03T15:51:06;1.73;;;1.33;;
54841;SDS011;40741;45.002;7.536;2023-02-03T15:53:42;4.20;;;2.05;;
54841;SDS011;40741;45.002;7.536;2023-02-03T15:56:10;9.48;;;2.45;;
54841;SDS011;40741;45.002;7.536;2023-02-03T15:58:39;9.07;;;3.35;;
54841;SDS011;40741;45.002;7.536;2023-02-03T16:01:10;11.25;;;5.10;;
54841;SDS011;40741;45.002;7.536;2023-02-03T16:03:40;33.30;;;5.00;;
54841;SDS011;40741;45.002;7.536;2023-02-03T16:08:46;6.53;;;3.53;;
54841;SDS011;40741;45.002;7.536;2023-02-03T16:11:19;6.78;;;3.05;;
54841;SDS011;40741;45.002;7.536;2023-02-03T16:13:45;1.50;;;1.40;;
54841;SDS011;40741;45.002;7.536;2023-02-03T16:16:16;5.18;;;2.35;;
54841;SDS011;40741;45.002;7.536;2023-02-03T16:18:56;5.25;;;3.17;;
54841;SDS011;40741;45.002;7.536;2023-02-03T16:21:31;5.88;;;3.63;;
54841;SDS011;40741;45.002;7.536;2023-02-03T16:23:58;14.73;;;4.15;;
54841;SDS011;40741;45.002;7.536;2023-02-03T16:26:25;8.23;;;4.07;;
54841;SDS011;40741;45.002;7.536;2023-02-03T16:28:56;10.25;;;5.93;;
54841;SDS011;40741;45.002;7.536;2023-02-03T16:31:46;2.55;;;1.70;;
54841;SDS011;40741;45.002;7.536;2023-02-03T16:34:31;4.80;;;2.25;;
54841;SDS011;40741;45.002;7.536;2023-02-03T16:37:21;8.95;;;4.40;;
54841;SDS011;40741;45.002;7.536;2023-02-03T16:40:07;8.23;;;4.40;;
54841;SDS011;40741;45.002;7.536;2023-02-03T16:42:52;8.52;;;3.42;;
54841;SDS011;40741;45.002;7.536;2023-02-03T16:45:37;8.93;;;4.28;;
54841;SDS011;40741;45.002;7.536;2023-02-03T16:48:21;6.50;;;4.47;;
54841;SDS011;40741;45.002;7.536;2023-02-03T16:51:10;15.38;;;6.63;;
54841;SDS011;40741;45.002;7.536;2023-02-03T16:53:37;14.13;;;5.85;;
54841;SDS011;40741;45.002;7.536;2023-02-03T16:56:04;10.90;;;5.65;;
54841;SDS011;40741;45.002;7.536;2023-02-03T16:58:30;7.93;;;4.30;;
54841;SDS011;40741;45.002;7.536;2023-02-03T17:00:58;12.75;;;5.63;;
54841;SDS011;40741;45.002;7.536;2023-02-03T17:03:29;12.52;;;5.47;;
54841;SDS011;40741;45.002;7.536;2023-02-03T17:06:00;13.80;;;4.78;;
54841;SDS011;40741;45.002;7.536;2023-02-03T17:08:26;8.35;;;3.83;;
54841;SDS011;40741;45.002;7.536;2023-02-03T17:10:52;11.55;;;6.03;;
54841;SDS011;40741;45.002;7.536;2023-02-03T17:13:19;7.88;;;4.63;;
54841;SDS011;40741;45.002;7.536;2023-02-03T17:15:46;11.95;;;6.03;;
54841;SDS011;40741;45.002;7.536;2023-02-03T17:18:13;10.32;;;5.28;;